Time;durP1;ratioP1;P1;durP2;ratioP2;P2;SDS_P1;SDS_P2;PMS_P1;PMS_P2;Temp;Humidity;BMP_temperature;BMP_pressure;BME280_temperature;BME280_humidity;BME280_pressure;Samples;Min_cycle;Max_cycle;Signal;HPM_P1;HPM_P2
2022/05/29 00:00:53;;;;;;;18.80;9.30;;;;;;;8.04;80.34;101728.00;5052267;28;20163;-54
2022/05/29 00:03:19;;;;;;;15.38;8.80;;;;;;;8.02;80.36;101728.25;5052653;28;20036;-55
2022/05/29 00:05:47;;;;;;;16.65;8.68;;;;;;;8.06;80.42;101720.28;5052079;28;20025;-55
2022/05/29 00:08:19;;;;;;;18.65;8.80;;;;;;;8.12;79.74;101708.22;5052780;28;20455;-55
2022/05/29 00:10:44;;;;;;;18.40;8.98;;;;;;;8.20;79.48;101715.13;5056413;28;20100;-55
2022/05/29 00:13:11;;;;;;;20.92;9.00;;;;;;;8.32;79.20;101712.13;5056255;28;20475;-55
2022/05/29 00:15:38;;;;;;;17.63;9.35;;;;;;;8.36;79.28;101705.81;5056433;28;20028;-55
2022/05/29 00:18:06;;;;;;;17.33;9.45;;;;;;;8.41;79.03;101707.75;5056401;28;20036;-55
2022/05/29 00:20:31;;;;;;;14.60;8.85;;;;;;;8.48;78.81;101702.03;5056110;28;20021;-56
2022/05/29 00:22:57;;;;;;;17.75;9.27;;;;;;;8.51;78.51;101707.00;5056054;28;20192;-56
2022/05/29 00:25:22;;;;;;;18.27;9.20;;;;;;;8.47;78.94;101703.09;5055735;28;20464;-56
2022/05/29 00:27:48;;;;;;;19.83;9.43;;;;;;;8.56;78.81;101707.84;5056191;28;20036;-56
2022/05/29 00:30:13;;;;;;;17.40;9.25;;;;;;;8.56;78.99;101704.25;5056292;28;20025;-56
2022/05/29 00:32:39;;;;;;;17.52;9.75;;;;;;;8.62;78.79;101692.16;5055914;28;20041;-56
2022/05/29 00:35:04;;;;;;;19.73;9.35;;;;;;;8.63;78.84;101691.06;5054288;28;20033;-54
2022/05/29 00:37:35;;;;;;;17.52;9.15;;;;;;;8.62;78.82;101683.03;5056054;28;20036;-55
2022/05/29 00:40:01;;;;;;;17.23;9.27;;;;;;;8.71;78.78;101696.03;5055863;28;20051;-55
2022/05/29 00:42:26;;;;;;;18.48;9.30;;;;;;;8.74;78.48;101689.13;5055739;28;20052;-55
2022/05/29 00:44:51;;;;;;;20.58;10.10;;;;;;;8.76;78.42;101686.94;5055724;28;20039;-55
2022/05/29 00:47:23;;;;;;;17.50;9.63;;;;;;;8.78;78.35;101678.38;5055770;28;20032;-55
2022/05/29 00:49:50;;;;;;;18.83;9.80;;;;;;;8.72;79.22;101681.13;5055712;28;20108;-56
2022/05/29 00:52:18;;;;;;;17.67;9.40;;;;;;;8.61;79.44;101681.38;5055547;28;20063;-55
2022/05/29 00:54:55;;;;;;;16.48;9.32;;;;;;;8.68;79.08;101696.56;5055583;28;20468;-56
2022/05/29 00:57:24;;;;;;;16.60;9.32;;;;;;;8.60;79.28;101677.78;5055708;28;20075;-58
2022/05/29 00:59:50;;;;;;;18.00;9.40;;;;;;;8.64;79.56;101683.59;5055601;28;20036;-56
2022/05/29 01:02:15;;;;;;;18.15;9.90;;;;;;;8.68;79.29;101682.78;5055452;28;20029;-56
2022/05/29 01:04:42;;;;;;;17.60;9.73;;;;;;;8.68;79.30;101677.25;5055150;28;20024;-56
2022/05/29 01:07:11;;;;;;;19.02;9.75;;;;;;;8.60;79.56;101665.94;5055586;28;20028;-60
2022/05/29 01:09:39;;;;;;;19.25;9.57;;;;;;;8.63;79.21;101668.13;5055461;28;20033;-55
2022/05/29 01:12:36;;;;;;;18.35;9.52;;;;;;;8.67;79.30;101667.31;5055369;28;20083;-54
2022/05/29 01:15:32;;;;;;;19.15;9.93;;;;;;;8.64;78.99;101665.13;5055166;28;20025;-54
2022/05/29 01:18:38;;;;;;;16.27;9.55;;;;;;;8.65;79.10;101661.25;5054384;28;20033;-52
2022/05/29 01:21:10;;;;;;;16.92;9.57;;;;;;;8.63;79.41;101652.44;5050957;28;20044;-54
2022/05/29 01:24:14;;;;;;;17.40;9.65;;;;;;;8.58;79.87;101661.53;5054943;28;20479;-54
2022/05/29 01:27:05;;;;;;;18.27;10.00;;;;;;;8.47;79.96;101657.09;4973956;28;20517;-54
2022/05/29 01:29:41;;;;;;;17.27;9.45;;;;;;;8.32;80.69;101657.84;5052056;28;20051;-55
2022/05/29 01:32:13;;;;;;;19.83;9.73;;;;;;;8.11;81.60;101649.50;5054998;28;20111;-55
2022/05/29 01:35:01;;;;;;;20.40;9.93;;;;;;;8.10;81.59;101656.09;5054861;28;20490;-56
2022/05/29 01:37:37;;;;;;;20.45;9.88;;;;;;;8.07;82.58;101653.06;5055122;28;20498;-53
2022/05/29 01:40:20;;;;;;;21.30;9.80;;;;;;;8.02;82.81;101647.53;5054726;28;20039;-54
2022/05/29 01:43:00;;;;;;;18.00;9.57;;;;;;;8.09;81.73;101650.88;5053375;28;20029;-54
2022/05/29 01:45:53;;;;;;;18.55;9.70;;;;;;;8.02;82.67;101642.84;5054708;28;20086;-52
2022/05/29 01:48:39;;;;;;;20.42;9.80;;;;;;;8.06;83.13;101643.97;5054754;28;20032;-53
2022/05/29 01:51:13;;;;;;;19.40;10.52;;;;;;;8.14;82.87;101642.59;5053937;28;20049;-52
2022/05/29 01:53:42;;;;;;;17.85;10.52;;;;;;;8.21;82.26;101625.81;5054761;28;20404;-51
2022/05/29 01:56:21;;;;;;;18.60;10.55;;;;;;;8.28;81.87;101640.16;5054360;28;20021;-53
2022/05/29 01:58:54;;;;;;;19.77;10.45;;;;;;;8.29;82.25;101630.81;5054364;28;20091;-50
2022/05/29 02:01:26;;;;;;;19.52;10.65;;;;;;;8.37;82.03;101632.22;5054564;28;20518;-53
2022/05/29 02:03:53;;;;;;;18.48;10.77;;;;;;;8.40;81.79;101634.44;5054462;28;20033;-53
2022/05/29 02:06:26;;;;;;;19.50;10.73;;;;;;;8.34;81.97;101639.09;5054232;28;20090;-52
2022/05/29 02:08:58;;;;;;;20.05;11.07;;;;;;;8.34;81.95;101636.34;5054303;28;20032;-54
2022/05/29 02:11:26;;;;;;;19.45;11.25;;;;;;;8.43;81.99;101634.72;5054243;28;20179;-54
2022/05/29 02:13:59;;;;;;;18.55;10.18;;;;;;;8.51;81.21;101625.09;5054166;28;20029;-53
2022/05/29 02:17:07;;;;;;;18.80;10.43;;;;;;;8.53;80.36;101624.84;5054412;28;20513;-54
2022/05/29 02:19:47;;;;;;;17.98;10.27;;;;;;;8.43;81.61;101628.34;4992591;28;20035;-54
2022/05/29 02:22:23;;;;;;;18.88;10.55;;;;;;;8.28;82.45;101616.19;4992652;28;20112;-54
2022/05/29 02:24:52;;;;;;;18.48;10.90;;;;;;;8.16;82.49;101621.13;5043672;22;20060;-58
2022/05/29 02:27:30;;;;;;;22.35;11.18;;;;;;;8.10;83.58;101611.19;5034445;28;20038;-60
2022/05/29 02:29:57;;;;;;;20.45;11.02;;;;;;;8.04;83.44;101604.81;5034314;28;20100;-58
2022/05/29 02:32:37;;;;;;;19.77;10.90;;;;;;;8.11;84.12;101616.41;5032997;28;20381;-58
2022/05/29 02:35:21;;;;;;;18.95;11.20;;;;;;;8.21;83.15;101609.28;5034178;28;20349;-58
2022/05/29 02:38:04;;;;;;;19.55;11.02;;;;;;;8.29;82.93;101603.22;5034030;28;20037;-58
2022/05/29 02:40:57;;;;;;;20.83;11.18;;;;;;;8.38;82.13;101601.59;5016477;28;20029;-59
2022/05/29 02:43:35;;;;;;;21.52;11.05;;;;;;;8.38;82.08;101600.78;5034114;28;20115;-58
2022/05/29 02:46:17;;;;;;;21.00;10.90;;;;;;;8.42;82.96;101597.22;5033926;28;20319;-59
2022/05/29 02:48:54;;;;;;;18.70;10.73;;;;;;;8.48;82.78;101597.22;5034057;28;20465;-58
2022/05/29 02:51:39;;;;;;;20.48;10.93;;;;;;;8.53;81.69;101597.25;5034108;28;20021;-58
2022/05/29 02:54:04;;;;;;;18.40;10.68;;;;;;;8.55;81.88;101589.50;5033844;28;20056;-59
2022/05/29 02:56:30;;;;;;;20.92;10.95;;;;;;;8.54;82.30;101585.94;5033898;28;20061;-58
2022/05/29 02:58:58;;;;;;;21.08;11.20;;;;;;;8.53;82.47;101580.72;5015934;28;20458;-58
2022/05/29 03:01:29;;;;;;;21.55;11.18;;;;;;;8.56;82.13;101589.25;5033249;28;20026;-58
2022/05/29 03:04:22;;;;;;;19.63;10.85;;;;;;;8.60;82.27;101588.72;5033493;28;20021;-58
2022/05/29 03:07:13;;;;;;;20.77;11.05;;;;;;;8.57;82.03;101585.41;5033379;28;20022;-58
2022/05/29 03:09:52;;;;;;;22.88;12.30;;;;;;;8.54;81.93;101579.63;5033681;28;20026;-58
2022/05/29 03:12:39;;;;;;;22.75;11.70;;;;;;;8.63;82.34;101594.50;5033301;28;20032;-58
2022/05/29 03:15:17;;;;;;;19.08;11.23;;;;;;;8.64;82.33;101592.56;5033524;28;20032;-58
2022/05/29 03:18:04;;;;;;;19.10;11.27;;;;;;;8.62;82.38;101587.34;5033366;28;20036;-58
2022/05/29 03:20:41;;;;;;;20.13;11.32;;;;;;;8.59;82.06;101582.38;5032952;28;20029;-59
2022/05/29 03:23:28;;;;;;;21.15;10.77;;;;;;;8.53;82.83;101583.47;5033355;28;20033;-59
2022/05/29 03:26:05;;;;;;;21.00;11.55;;;;;;;8.46;82.85;101580.94;5033561;28;20126;-58
2022/05/29 03:28:38;;;;;;;22.38;10.90;;;;;;;8.47;82.91;101577.13;5032977;28;20087;-59
2022/05/29 03:31:09;;;;;;;21.17;11.50;;;;;;;8.52;82.68;101581.81;5032885;28;20022;-59
2022/05/29 03:33:37;;;;;;;19.63;10.80;;;;;;;8.51;82.80;101575.44;5032407;28;20512;-59
2022/05/29 03:36:07;;;;;;;17.98;10.60;;;;;;;8.53;82.61;101576.00;5032585;28;20064;-58
2022/05/29 03:38:32;;;;;;;19.50;10.77;;;;;;;8.52;82.56;101579.88;5032574;28;20052;-59
2022/05/29 03:40:58;;;;;;;20.75;11.52;;;;;;;8.52;82.53;101570.78;5032459;28;20470;-59
2022/05/29 03:43:23;;;;;;;21.65;11.13;;;;;;;8.52;83.26;101584.56;5032746;28;20109;-59
2022/05/29 03:45:48;;;;;;;21.58;11.00;;;;;;;8.51;82.78;101572.69;5032614;28;20354;-59
2022/05/29 03:48:14;;;;;;;22.02;11.70;;;;;;;8.47;82.64;101584.50;5032273;28;20033;-59
2022/05/29 03:50:39;;;;;;;21.73;10.90;;;;;;;8.40;82.98;101579.28;5032574;28;20481;-59
2022/05/29 03:53:05;;;;;;;20.67;10.80;;;;;;;8.40;83.90;101579.28;5032805;28;20045;-59
2022/05/29 03:55:31;;;;;;;21.58;10.82;;;;;;;8.40;83.89;101582.84;5032336;28;20508;-59
2022/05/29 03:57:56;;;;;;;19.45;10.95;;;;;;;8.38;84.41;101587.00;5033051;28;20106;-60
2022/05/29 04:00:23;;;;;;;19.05;10.73;;;;;;;8.31;84.69;101576.22;5032429;28;20030;-59
2022/05/29 04:02:49;;;;;;;21.60;11.55;;;;;;;8.28;85.62;101574.00;5032361;28;20033;-59
2022/05/29 04:05:22;;;;;;;20.83;10.90;;;;;;;8.23;86.48;101574.00;5032236;28;20025;-59
2022/05/29 04:13:18;;;;;;;20.50;10.55;;;;;;;8.22;86.66;101567.66;5032790;28;20048;-59
2022/05/29 04:15:46;;;;;;;20.77;10.73;;;;;;;8.20;88.03;101566.28;5032572;28;20026;-59
2022/05/29 04:18:17;;;;;;;21.23;11.48;;;;;;;8.23;88.97;101561.03;5032449;28;20501;-60
2022/05/29 04:20:42;;;;;;;20.42;11.05;;;;;;;8.27;88.06;101567.69;5032178;28;20080;-59
2022/05/29 04:23:08;;;;;;;19.77;11.35;;;;;;;8.26;87.73;101565.19;5032547;28;20397;-59
2022/05/29 04:25:33;;;;;;;21.98;11.40;;;;;;;8.33;88.20;101564.91;5032302;28;20046;-59
2022/05/29 04:28:00;;;;;;;20.92;10.60;;;;;;;8.30;88.48;101580.09;5032521;28;20112;-59
2022/05/29 04:30:25;;;;;;;20.90;11.02;;;;;;;8.28;88.93;101577.59;5032421;28;20057;-59
2022/05/29 04:32:59;;;;;;;22.25;11.27;;;;;;;8.18;90.13;101571.22;5032446;28;20056;-59
2022/05/29 04:35:29;;;;;;;18.75;10.95;;;;;;;8.16;90.25;101579.78;5032443;28;20055;-60
2022/05/29 04:37:55;;;;;;;20.67;10.82;;;;;;;8.17;90.83;101581.44;5032375;28;20381;-59
2022/05/29 04:40:20;;;;;;;21.63;10.63;;;;;;;8.11;90.20;101571.50;5032314;28;20104;-59
2022/05/29 04:42:46;;;;;;;20.25;10.27;;;;;;;8.12;90.68;101571.22;5032106;28;20075;-59
2022/05/29 04:45:11;;;;;;;21.02;10.73;;;;;;;8.11;90.90;101572.31;5032288;28;20029;-58
2022/05/29 04:47:37;;;;;;;22.88;11.10;;;;;;;8.10;91.28;101575.34;5031717;28;20033;-59
2022/05/29 04:50:04;;;;;;;19.80;10.45;;;;;;;8.10;91.98;101567.09;5032235;28;20029;-58
2022/05/29 04:52:29;;;;;;;22.15;11.52;;;;;;;8.12;93.10;101559.38;5031855;28;20059;-59
2022/05/29 04:54:55;;;;;;;20.90;10.85;;;;;;;8.18;92.02;101565.72;5016208;28;20052;-59
2022/05/29 04:57:20;;;;;;;20.13;10.68;;;;;;;8.27;91.49;101558.56;5035755;28;20030;-59
2022/05/29 04:59:45;;;;;;;20.15;10.60;;;;;;;8.36;91.54;101556.09;5035464;28;20457;-59
2022/05/29 05:02:10;;;;;;;20.92;10.57;;;;;;;8.30;91.61;101557.22;5035273;28;20029;-59
2022/05/29 05:04:36;;;;;;;20.73;10.65;;;;;;;8.28;92.20;101549.19;5035677;28;20048;-59
2022/05/29 05:07:01;;;;;;;20.40;10.65;;;;;;;8.29;92.02;101553.63;5035634;28;20516;-59
2022/05/29 05:09:28;;;;;;;18.10;9.80;;;;;;;8.27;91.38;101555.81;5035024;28;20453;-60
2022/05/29 05:11:55;;;;;;;21.60;10.23;;;;;;;8.32;91.61;101560.50;5034574;28;20036;-59
2022/05/29 05:14:22;;;;;;;17.83;9.90;;;;;;;8.26;91.53;101557.75;5034906;28;20064;-59
2022/05/29 05:16:48;;;;;;;18.50;9.82;;;;;;;8.30;91.51;101544.25;5035356;28;20036;-59
2022/05/29 05:19:15;;;;;;;19.42;9.70;;;;;;;8.33;91.69;101554.72;5035679;28;20073;-59
2022/05/29 05:21:41;;;;;;;16.30;9.02;;;;;;;8.38;90.62;101548.41;5034959;28;20484;-59
2022/05/29 05:24:07;;;;;;;17.25;8.80;;;;;;;8.48;90.32;101544.84;5017614;28;20369;-59
2022/05/29 05:26:33;;;;;;;15.20;8.57;;;;;;;8.55;89.29;101528.84;5034649;28;20107;-59
2022/05/29 05:28:59;;;;;;;16.10;8.60;;;;;;;8.63;89.41;101525.56;5035387;28;20022;-59
2022/05/29 05:31:25;;;;;;;13.48;8.35;;;;;;;8.70;88.95;101522.50;5034859;28;20035;-59
2022/05/29 05:33:51;;;;;;;16.15;8.52;;;;;;;8.77;88.26;101527.75;5034841;28;20033;-59
2022/05/29 05:36:17;;;;;;;16.75;8.38;;;;;;;8.81;87.37;101515.88;5034773;28;20029;-59
2022/05/29 05:38:42;;;;;;;12.95;8.20;;;;;;;8.78;87.31;101526.63;5034762;28;20095;-59
2022/05/29 05:41:12;;;;;;;17.10;8.70;;;;;;;8.79;87.17;101529.09;5035055;28;20449;-59
2022/05/29 05:43:37;;;;;;;18.65;8.70;;;;;;;8.81;88.26;101532.44;5034943;28;20025;-59
2022/05/29 05:46:11;;;;;;;15.38;8.80;;;;;;;8.80;88.98;101532.72;5035120;28;20029;-59
2022/05/29 05:48:38;;;;;;;14.68;8.48;;;;;;;8.82;87.91;101531.31;5034348;28;20453;-60
2022/05/29 05:51:05;;;;;;;18.83;9.55;;;;;;;8.64;89.44;101540.16;5034830;28;20025;-59
2022/05/29 05:53:30;;;;;;;17.67;9.57;;;;;;;8.67;89.83;101529.41;5034585;28;20052;-59
2022/05/29 05:55:55;;;;;;;19.33;9.73;;;;;;;8.81;88.72;101539.88;5034385;28;20025;-59
2022/05/29 05:58:21;;;;;;;19.65;10.23;;;;;;;8.68;89.77;101535.75;5016739;28;20032;-60
2022/05/29 06:00:47;;;;;;;18.88;9.50;;;;;;;8.68;89.77;101542.09;5034608;28;20025;-59
2022/05/29 06:03:13;;;;;;;18.42;9.85;;;;;;;8.69;89.85;101541.00;5034199;28;20026;-59
2022/05/29 06:05:38;;;;;;;20.35;10.20;;;;;;;8.70;90.18;101539.88;5034392;28;20025;-59
2022/05/29 06:08:04;;;;;;;20.08;10.25;;;;;;;8.68;91.51;101536.56;5034643;28;20449;-59
2022/05/29 06:10:29;;;;;;;20.17;10.65;;;;;;;8.68;91.77;101544.03;5016337;28;20033;-58
2022/05/29 06:12:56;;;;;;;18.48;10.07;;;;;;;8.61;91.85;101548.97;5034459;28;20087;-59
2022/05/29 06:15:22;;;;;;;21.80;10.80;;;;;;;8.58;91.98;101547.59;5034422;28;20100;-61
2022/05/29 06:17:47;;;;;;;19.73;10.63;;;;;;;8.64;91.54;101537.41;5034510;28;20053;-59
2022/05/29 06:20:13;;;;;;;20.10;9.82;;;;;;;8.78;91.75;101543.19;5034179;28;20540;-59
2022/05/29 06:22:39;;;;;;;19.83;10.80;;;;;;;8.89;91.66;101542.09;5034355;28;20093;-59
2022/05/29 06:25:07;;;;;;;20.67;11.13;;;;;;;9.05;91.59;101545.66;5033670;28;20370;-59
2022/05/29 06:27:40;;;;;;;21.52;11.00;;;;;;;9.20;91.58;101537.34;5033967;28;20033;-59
2022/05/29 06:30:08;;;;;;;20.15;10.45;;;;;;;9.44;89.76;101544.16;5033674;28;20037;-59
2022/05/29 06:32:37;;;;;;;21.17;10.23;;;;;;;9.51;88.88;101542.78;5034147;28;20021;-59
2022/05/29 06:35:04;;;;;;;19.33;10.00;;;;;;;9.70;89.54;101544.06;5033971;28;20037;-59
2022/05/29 06:37:30;;;;;;;19.80;10.45;;;;;;;9.79;88.43;101543.19;5034021;28;20037;-59
2022/05/29 06:39:55;;;;;;;18.00;9.95;;;;;;;9.90;88.02;101543.16;5033851;28;20075;-59
2022/05/29 06:42:21;;;;;;;18.40;9.93;;;;;;;9.94;87.08;101534.00;5033994;28;20461;-59
2022/05/29 06:44:46;;;;;;;18.63;10.02;;;;;;;9.99;86.77;101538.69;5034125;28;20060;-59
2022/05/29 06:47:14;;;;;;;18.63;10.23;;;;;;;10.00;87.02;101543.09;5033832;28;20037;-59
2022/05/29 06:49:39;;;;;;;20.25;10.40;;;;;;;10.06;87.10;101533.66;5033521;28;20129;-59
2022/05/29 06:52:09;;;;;;;19.75;9.95;;;;;;;10.09;87.35;101541.38;5033601;28;20331;-59
2022/05/29 06:54:35;;;;;;;21.52;10.93;;;;;;;10.13;87.25;101544.41;5034022;28;20036;-59
2022/05/29 06:57:01;;;;;;;19.40;10.27;;;;;;;10.12;86.21;101546.31;5033847;28;20109;-59
2022/05/29 06:59:26;;;;;;;19.17;10.23;;;;;;;10.09;86.75;101541.38;5033687;28;20160;-61
2022/05/29 07:07:21;;;;;;;23.13;12.70;;;;;;;10.17;87.63;101537.16;5033665;28;20122;-59
2022/05/29 07:09:47;;;;;;;18.85;10.20;;;;;;;10.21;86.51;101541.03;5033461;28;20065;-59
2022/05/29 07:12:19;;;;;;;21.17;11.00;;;;;;;10.28;87.40;101537.94;5033334;28;20037;-59
2022/05/29 07:14:50;;;;;;;21.45;10.63;;;;;;;10.24;86.38;101536.84;5033532;28;20025;-59
2022/05/29 07:17:15;;;;;;;21.23;10.55;;;;;;;10.17;87.09;101530.84;5032565;28;20140;-59
2022/05/29 07:19:41;;;;;;;21.95;11.00;;;;;;;10.19;88.05;101537.72;5032931;28;20067;-59
2022/05/29 07:22:07;;;;;;;19.20;10.40;;;;;;;10.25;88.56;101533.78;5033174;28;20036;-59
2022/05/29 07:24:35;;;;;;;20.00;10.68;;;;;;;10.32;87.70;101535.44;5032603;28;20029;-59
2022/05/29 07:27:00;;;;;;;21.25;10.60;;;;;;;10.38;87.41;101529.63;5033065;28;20206;-59
2022/05/29 07:29:25;;;;;;;22.25;10.75;;;;;;;10.51;88.22;101530.06;5033109;28;20109;-58
2022/05/29 07:31:53;;;;;;;20.70;10.60;;;;;;;10.62;87.25;101531.63;5032492;28;20095;-59
2022/05/29 07:34:18;;;;;;;18.40;10.23;;;;;;;10.83;86.27;101526.72;5015075;28;20094;-59
2022/05/29 07:36:45;;;;;;;18.60;10.27;;;;;;;10.93;85.53;101520.28;5032877;28;20481;-59
2022/05/29 07:39:11;;;;;;;19.10;10.63;;;;;;;10.92;84.18;101521.41;5032879;28;20129;-59
2022/05/29 07:44:21;;;;;;;20.35;10.68;;;;;;;10.86;84.47;101519.81;5033305;28;20095;-60
2022/05/29 07:46:46;;;;;;;19.55;10.38;;;;;;;10.92;84.30;101519.44;5033133;28;20022;-61
2022/05/29 07:49:12;;;;;;;20.15;10.30;;;;;;;11.01;85.13;101519.66;5033095;28;20100;-60
2022/05/29 07:51:37;;;;;;;19.52;10.40;;;;;;;11.05;85.73;101512.38;5033231;28;20052;-59
2022/05/29 07:54:03;;;;;;;19.73;9.80;;;;;;;11.06;85.10;101521.53;5015048;28;20037;-62
2022/05/29 07:56:28;;;;;;;18.65;9.90;;;;;;;11.11;84.81;101518.69;5032441;28;20076;-61
2022/05/29 07:58:53;;;;;;;19.90;9.82;;;;;;;11.11;83.55;101517.88;5032437;28;20034;-62
2022/05/29 08:01:19;;;;;;;20.05;10.13;;;;;;;11.22;84.59;101513.88;5032062;28;20414;-61
2022/05/29 08:03:45;;;;;;;20.10;10.07;;;;;;;11.36;80.42;101505.69;5032359;28;20038;-61
2022/05/29 08:06:11;;;;;;;19.70;10.23;;;;;;;11.44;80.48;101502.28;5032233;28;20037;-61
2022/05/29 08:08:37;;;;;;;21.10;10.93;;;;;;;11.59;80.78;101504.03;5032438;28;20031;-61
2022/05/29 08:11:02;;;;;;;19.58;10.13;;;;;;;11.63;79.91;101510.59;5032448;28;20033;-61
2022/05/29 08:13:29;;;;;;;19.52;10.32;;;;;;;11.58;78.29;101505.16;5032532;28;20028;-61
2022/05/29 08:15:55;;;;;;;20.73;10.35;;;;;;;11.68;80.18;101501.41;5032790;28;20037;-61
2022/05/29 08:18:21;;;;;;;20.75;10.10;;;;;;;11.80;79.65;101503.75;5032747;28;20030;-61
2022/05/29 08:20:47;;;;;;;20.10;10.20;;;;;;;11.78;76.95;101504.03;5028690;28;20096;-62
2022/05/29 08:23:12;;;;;;;18.70;9.82;;;;;;;11.77;77.11;101507.13;5011521;28;20033;-61
2022/05/29 08:31:06;;;;;;;20.92;9.80;;;;;;;11.47;76.48;101504.47;5015609;28;20041;-61
2022/05/29 08:33:35;;;;;;;20.90;10.18;;;;;;;11.38;77.04;101503.47;5015027;28;20025;-61
2022/05/29 08:36:07;;;;;;;21.27;11.25;;;;;;;11.37;77.96;101499.84;5014959;28;20117;-61
2022/05/29 08:38:35;;;;;;;23.13;10.60;;;;;;;11.43;77.36;101492.31;5014870;28;20480;-61
2022/05/29 08:41:12;;;;;;;18.30;10.35;;;;;;;11.51;76.57;101490.84;5014900;28;20140;-65
2022/05/29 08:43:42;;;;;;;18.98;10.30;;;;;;;11.57;77.15;101486.88;5014633;28;20045;-61
2022/05/29 08:46:18;;;;;;;18.92;10.32;;;;;;;11.78;75.28;101497.69;5014592;28;20060;-61
2022/05/29 08:48:44;;;;;;;18.23;9.13;;;;;;;11.91;74.92;101498.88;5014659;28;20038;-61
2022/05/29 08:51:41;;;;;;;21.45;9.32;;;;;;;12.13;75.34;101498.31;5013873;28;20044;-62
2022/05/29 08:54:13;;;;;;;19.70;9.10;;;;;;;12.30;72.15;101495.81;5008449;28;20049;-61
2022/05/29 08:56:57;;;;;;;16.52;8.70;;;;;;;12.46;71.60;101492.81;5014088;28;20022;-61
2022/05/29 08:59:34;;;;;;;15.40;8.73;;;;;;;12.62;70.44;101490.56;5013905;28;20037;-61
2022/05/29 09:02:15;;;;;;;16.83;9.10;;;;;;;12.87;70.40;101478.19;5019357;28;20033;-62
2022/05/29 09:04:47;;;;;;;17.38;9.48;;;;;;;13.05;69.18;101482.03;5014439;28;20041;-62
2022/05/29 09:07:17;;;;;;;19.73;9.00;;;;;;;12.91;67.47;101472.84;5025326;28;20148;-62
2022/05/29 09:09:56;;;;;;;18.15;9.40;;;;;;;12.92;68.83;101463.38;5022749;28;20536;-62
2022/05/29 09:12:24;;;;;;;19.98;8.68;;;;;;;12.82;66.66;101478.28;5023037;28;20034;-62
2022/05/29 09:15:06;;;;;;;16.52;8.68;;;;;;;13.00;68.25;101462.66;5014701;28;20028;-62
2022/05/29 09:17:37;;;;;;;16.80;8.57;;;;;;;13.37;67.45;101468.34;5025857;28;20030;-62
2022/05/29 09:20:10;;;;;;;17.08;8.88;;;;;;;13.57;65.60;101458.75;5022406;28;20235;-62
2022/05/29 09:22:41;;;;;;;18.42;9.10;;;;;;;13.94;68.52;101456.81;5033689;28;20083;-62
2022/05/29 09:25:11;;;;;;;16.33;8.40;;;;;;;14.00;64.83;101461.13;5033661;28;20123;-62
2022/05/29 09:27:42;;;;;;;16.60;8.70;;;;;;;13.92;62.74;101455.47;5034070;28;20127;-62
2022/05/29 09:30:08;;;;;;;16.80;8.55;;;;;;;14.13;66.13;101453.88;5033806;28;20033;-63
2022/05/29 09:32:46;;;;;;;17.40;9.07;;;;;;;14.38;62.33;101445.19;5033766;28;20065;-62
2022/05/29 09:35:26;;;;;;;17.25;8.48;;;;;;;14.55;62.55;101442.50;5034209;28;20040;-62
2022/05/29 09:38:10;;;;;;;13.88;8.20;;;;;;;14.56;61.35;101446.94;5033821;28;20112;-61
2022/05/29 09:40:41;;;;;;;13.15;7.70;;;;;;;14.22;58.85;101434.44;5033182;28;20091;-61
2022/05/29 09:43:23;;;;;;;14.43;7.68;;;;;;;14.12;59.48;101438.31;5016043;28;20030;-61
2022/05/29 09:45:50;;;;;;;14.45;7.93;;;;;;;14.12;58.77;101438.31;5033609;28;20029;-61
2022/05/29 09:51:16;;;;;;;14.50;7.85;;;;;;;14.47;58.01;101440.50;5032805;28;20448;-61
2022/05/29 09:53:47;;;;;;;15.70;8.32;;;;;;;14.57;59.20;101425.47;5033205;28;20068;-61
2022/05/29 09:56:14;;;;;;;16.17;8.20;;;;;;;14.82;58.77;101426.78;5032982;28;20033;-61
2022/05/29 09:58:45;;;;;;;14.10;8.20;;;;;;;14.83;59.48;101414.50;5015034;28;20124;-61
2022/05/29 10:01:11;;;;;;;15.27;8.30;;;;;;;14.84;58.73;101418.94;5033576;28;20025;-61
2022/05/29 10:03:50;;;;;;;17.75;8.93;;;;;;;14.35;61.81;101425.19;5033077;28;20052;-62
2022/05/29 10:06:29;;;;;;;16.70;8.95;;;;;;;13.92;63.48;101424.88;5032999;28;20060;-61
2022/05/29 10:09:15;;;;;;;17.77;8.80;;;;;;;13.77;62.43;101423.28;5033269;28;20079;-61
2022/05/29 10:11:43;;;;;;;16.67;7.95;;;;;;;13.67;63.66;101458.53;5033187;28;20053;-61
2022/05/29 10:14:35;;;;;;;10.98;7.60;;;;;;;13.20;65.50;101474.50;5032786;28;20467;-60
2022/05/29 10:17:01;;;;;;;10.93;7.30;;;;;;;12.55;67.91;101492.91;5032815;28;20060;-61
2022/05/29 10:19:38;;;;;;;9.48;7.10;;;;;;;11.78;66.84;101469.97;5032723;28;20465;-60
2022/05/29 10:22:12;;;;;;;8.80;6.93;;;;;;;11.47;70.59;101460.13;5014930;28;20392;-61
2022/05/29 10:24:40;;;;;;;11.40;7.32;;;;;;;11.39;71.71;101455.22;5032526;28;20120;-60
2022/05/29 10:27:12;;;;;;;9.10;7.13;;;;;;;11.41;72.54;101449.41;5032723;28;20033;-61
2022/05/29 10:29:39;;;;;;;10.50;7.25;;;;;;;11.36;71.53;101453.06;5032336;28;20037;-61
2022/05/29 10:32:07;;;;;;;10.88;7.13;;;;;;;11.45;72.68;101459.59;5012452;28;20363;-61
2022/05/29 10:34:36;;;;;;;9.60;7.38;;;;;;;11.58;77.91;101455.25;5012781;28;20387;-61
2022/05/29 10:37:26;;;;;;;9.80;7.40;;;;;;;11.64;77.01;101454.06;5012575;28;20565;-61
2022/05/29 10:39:51;;;;;;;10.45;7.35;;;;;;;11.57;78.04;101450.03;5012231;28;20079;-61
2022/05/29 10:42:41;;;;;;;9.18;7.00;;;;;;;11.66;77.33;101459.31;5012707;28;20033;-61
2022/05/29 10:45:08;;;;;;;9.32;7.57;;;;;;;11.44;77.08;101454.31;5012539;28;20531;-61
2022/05/29 10:47:47;;;;;;;15.18;8.88;;;;;;;11.53;76.43;101450.63;5012743;28;20030;-60
2022/05/29 10:50:42;;;;;;;10.85;7.45;;;;;;;11.47;76.61;101459.28;5012452;28;20029;-61
2022/05/29 10:53:23;;;;;;;9.73;7.10;;;;;;;11.60;76.88;101453.03;5004447;28;20103;-61
2022/05/29 10:56:07;;;;;;;11.43;7.07;;;;;;;11.84;76.57;101450.19;5012479;28;20022;-61
2022/05/29 10:58:51;;;;;;;9.88;7.20;;;;;;;11.86;75.50;101444.34;5011751;28;20109;-61
2022/05/29 11:04:34;;;;;;;10.48;7.45;;;;;;;12.23;74.67;101450.19;5012480;28;20382;-61
2022/05/29 11:07:26;;;;;;;9.90;7.07;;;;;;;12.43;74.77;101435.94;5012420;28;20030;-60
2022/05/29 11:10:05;;;;;;;10.02;7.20;;;;;;;12.55;72.01;101435.47;5012376;28;20117;-60
2022/05/29 11:12:53;;;;;;;12.77;7.30;;;;;;;12.87;73.20;101428.19;5012047;28;20114;-61
2022/05/29 11:15:33;;;;;;;11.30;7.30;;;;;;;13.19;72.65;101440.34;5011564;28;20030;-61
2022/05/29 11:18:41;;;;;;;9.85;7.10;;;;;;;13.66;71.27;101433.81;5011192;28;20117;-61
2022/05/29 11:21:09;;;;;;;9.88;7.00;;;;;;;13.67;68.51;101427.94;5011776;28;20137;-61
2022/05/29 11:23:49;;;;;;;12.95;7.20;;;;;;;13.93;71.70;101426.53;5012019;28;20104;-60
2022/05/29 11:26:42;;;;;;;9.27;6.80;;;;;;;14.25;69.15;101421.88;5012242;28;20053;-61
2022/05/29 11:29:39;;;;;;;9.15;6.80;;;;;;;14.64;67.83;101409.97;4993163;28;20125;-60
2022/05/29 11:32:24;;;;;;;13.25;7.68;;;;;;;14.65;64.29;101411.63;5012476;28;20041;-61
2022/05/29 11:35:12;;;;;;;13.45;7.80;;;;;;;14.56;63.75;101410.75;5011919;28;20033;-61
2022/05/29 11:37:43;;;;;;;13.18;7.72;;;;;;;14.51;67.31;101422.84;5012310;28;20113;-60
2022/05/29 11:40:17;;;;;;;12.52;8.00;;;;;;;14.16;66.91;101430.97;5011522;28;20057;-60
2022/05/29 11:42:51;;;;;;;9.73;7.60;;;;;;;13.70;65.40;101440.38;5010669;28;20021;-61
2022/05/29 11:51:06;;;;;;;9.90;7.50;;;;;;;12.82;68.49;101439.41;5011911;28;20080;-61
2022/05/29 11:51:07;;;;;;;8.85;7.30;;;;;;;11.56;75.30;101424.25;5011136;28;20153;-61
2022/05/29 11:53:33;;;;;;;;;;;;;;;11.71;74.90;101435.09;5012322;28;20104;-61
2022/05/29 11:56:03;;;;;;;9.98;7.70;;;;;;;11.61;77.06;101415.88;5011876;28;20040;-60
2022/05/29 11:58:45;;;;;;;12.80;8.23;;;;;;;11.75;77.89;101418.72;5011776;28;20447;-62
2022/05/29 12:01:21;;;;;;;12.95;8.23;;;;;;;11.79;79.58;101405.09;5011358;28;20113;-61
2022/05/29 12:03:55;;;;;;;10.70;7.82;;;;;;;12.13;77.40;101407.63;5014634;28;20034;-61
2022/05/29 12:06:30;;;;;;;11.05;7.60;;;;;;;12.31;77.08;101405.91;5017785;28;20026;-60
2022/05/29 12:09:17;;;;;;;10.68;7.80;;;;;;;12.64;75.76;101410.59;5017646;28;20112;-60